sensor_id;sensor_type;location;lat;lon;timestamp;temperature;humidity
27314;DHT22;14800;48.174;9.798;2023-02-15T00:01:33;2.60;89.10
27314;DHT22;14800;48.174;9.798;2023-02-15T00:03:58;2.60;89.50
27314;DHT22;14800;48.174;9.798;2023-02-15T00:06:24;2.60;89.80
27314;DHT22;14800;48.174;9.798;2023-02-15T00:08:50;2.60;90.00
27314;DHT22;14800;48.174;9.798;2023-02-15T00:11:18;2.60;89.80
27314;DHT22;14800;48.174;9.798;2023-02-15T00:14:10;2.60;90.00
27314;DHT22;14800;48.174;9.798;2023-02-15T00:16:37;2.60;90.00
27314;DHT22;14800;48.174;9.798;2023-02-15T00:19:03;2.60;90.00
27314;DHT22;14800;48.174;9.798;2023-02-15T00:21:31;2.60;89.90
27314;DHT22;14800;48.174;9.798;2023-02-15T00:23:58;2.60;90.00
27314;DHT22;14800;48.174;9.798;2023-02-15T00:26:24;2.60;90.00
27314;DHT22;14800;48.174;9.798;2023-02-15T00:28:50;2.60;90.00
27314;DHT22;14800;48.174;9.798;2023-02-15T00:31:17;2.70;90.00
27314;DHT22;14800;48.174;9.798;2023-02-15T00:33:42;2.70;89.90
27314;DHT22;14800;48.174;9.798;2023-02-15T00:36:09;2.70;89.80
27314;DHT22;14800;48.174;9.798;2023-02-15T00:38:35;2.70;89.60
27314;DHT22;14800;48.174;9.798;2023-02-15T00:41:03;2.70;89.70
27314;DHT22;14800;48.174;9.798;2023-02-15T00:43:32;2.70;89.60
27314;DHT22;14800;48.174;9.798;2023-02-15T00:45:58;2.70;89.40
27314;DHT22;14800;48.174;9.798;2023-02-15T00:48:23;2.70;89.40
27314;DHT22;14800;48.174;9.798;2023-02-15T00:50:51;2.70;89.40
27314;DHT22;14800;48.174;9.798;2023-02-15T00:53:17;2.70;89.40
27314;DHT22;14800;48.174;9.798;2023-02-15T00:55:43;2.70;89.30
27314;DHT22;14800;48.174;9.798;2023-02-15T00:58:09;2.70;89.30
27314;DHT22;14800;48.174;9.798;2023-02-15T01:00:36;2.70;89.40
27314;DHT22;14800;48.174;9.798;2023-02-15T01:03:02;2.70;89.40
27314;DHT22;14800;48.174;9.798;2023-02-15T01:05:27;2.70;89.60
27314;DHT22;14800;48.174;9.798;2023-02-15T01:07:55;2.70;89.60
27314;DHT22;14800;48.174;9.798;2023-02-15T01:10:20;2.70;89.60
27314;DHT22;14800;48.174;9.798;2023-02-15T01:12:46;2.70;89.60
27314;DHT22;14800;48.174;9.798;2023-02-15T01:15:12;2.70;89.20
27314;DHT22;14800;48.174;9.798;2023-02-15T01:17:37;2.70;88.90
27314;DHT22;14800;48.174;9.798;2023-02-15T01:20:03;2.70;88.70
27314;DHT22;14800;48.174;9.798;2023-02-15T01:22:29;2.60;88.70
27314;DHT22;14800;48.174;9.798;2023-02-15T01:24:55;2.60;88.60
27314;DHT22;14800;48.174;9.798;2023-02-15T01:27:20;2.50;88.60
27314;DHT22;14800;48.174;9.798;2023-02-15T01:29:46;2.50;88.80
27314;DHT22;14800;48.174;9.798;2023-02-15T01:32:12;2.40;89.10
27314;DHT22;14800;48.174;9.798;2023-02-15T01:34:38;2.30;89.20
27314;DHT22;14800;48.174;9.798;2023-02-15T01:37:04;2.30;89.40
27314;DHT22;14800;48.174;9.798;2023-02-15T01:39:29;2.30;89.40
27314;DHT22;14800;48.174;9.798;2023-02-15T01:41:55;2.30;89.40
27314;DHT22;14800;48.174;9.798;2023-02-15T01:44:49;2.30;89.60
27314;DHT22;14800;48.174;9.798;2023-02-15T01:49:49;2.40;90.00
27314;DHT22;14800;48.174;9.798;2023-02-15T01:52:18;2.40;90.40
27314;DHT22;14800;48.174;9.798;2023-02-15T01:54:46;2.40;90.00
27314;DHT22;14800;48.174;9.798;2023-02-15T01:57:15;2.50;90.00
27314;DHT22;14800;48.174;9.798;2023-02-15T01:59:44;2.50;89.80
27314;DHT22;14800;48.174;9.798;2023-02-15T02:02:13;2.50;89.60
27314;DHT22;14800;48.174;9.798;2023-02-15T02:04:44;2.40;89.40
27314;DHT22;14800;48.174;9.798;2023-02-15T02:07:12;2.40;89.30
27314;DHT22;14800;48.174;9.798;2023-02-15T02:09:39;2.40;89.40
27314;DHT22;14800;48.174;9.798;2023-02-15T02:12:05;2.40;89.30
27314;DHT22;14800;48.174;9.798;2023-02-15T02:14:31;2.40;89.40
27314;DHT22;14800;48.174;9.798;2023-02-15T02:22:14;2.40;89.80
27314;DHT22;14800;48.174;9.798;2023-02-15T02:27:33;2.40;90.30
27314;DHT22;14800;48.174;9.798;2023-02-15T02:35:36;2.50;89.60
27314;DHT22;14800;48.174;9.798;2023-02-15T02:38:11;2.50;89.50
27314;DHT22;14800;48.174;9.798;2023-02-15T02:41:05;2.50;90.10
27314;DHT22;14800;48.174;9.798;2023-02-15T02:46:44;2.50;89.10
27314;DHT22;14800;48.174;9.798;2023-02-15T02:49:11;2.50;88.40
27314;DHT22;14800;48.174;9.798;2023-02-15T02:51:37;2.40;89.10
27314;DHT22;14800;48.174;9.798;2023-02-15T02:54:05;2.40;89.10
27314;DHT22;14800;48.174;9.798;2023-02-15T02:56:47;2.40;88.90
27314;DHT22;14800;48.174;9.798;2023-02-15T02:59:20;2.40;89.10
27314;DHT22;14800;48.174;9.798;2023-02-15T03:01:55;2.40;89.10
27314;DHT22;14800;48.174;9.798;2023-02-15T03:04:32;2.40;89.30
27314;DHT22;14800;48.174;9.798;2023-02-15T03:07:12;2.40;89.40
27314;DHT22;14800;48.174;9.798;2023-02-15T03:09:44;2.40;89.60
27314;DHT22;14800;48.174;9.798;2023-02-15T03:12:13;2.40;89.50
27314;DHT22;14800;48.174;9.798;2023-02-15T03:14:40;2.50;89.60
27314;DHT22;14800;48.174;9.798;2023-02-15T03:17:07;2.40;89.60
27314;DHT22;14800;48.174;9.798;2023-02-15T03:19:35;2.40;89.60
27314;DHT22;14800;48.174;9.798;2023-02-15T03:22:12;2.50;89.40
27314;DHT22;14800;48.174;9.798;2023-02-15T03:24:49;2.50;89.30
27314;DHT22;14800;48.174;9.798;2023-02-15T03:27:18;2.40;89.10
27314;DHT22;14800;48.174;9.798;2023-02-15T03:29:47;2.40;88.90
27314;DHT22;14800;48.174;9.798;2023-02-15T03:32:14;2.40;88.60
27314;DHT22;14800;48.174;9.798;2023-02-15T03:34:41;2.40;88.50
27314;DHT22;14800;48.174;9.798;2023-02-15T03:40:45;2.30;89.00
27314;DHT22;14800;48.174;9.798;2023-02-15T03:43:34;2.20;88.90
27314;DHT22;14800;48.174;9.798;2023-02-15T03:49:06;2.20;89.10
27314;DHT22;14800;48.174;9.798;2023-02-15T03:51:36;2.20;89.10
27314;DHT22;14800;48.174;9.798;2023-02-15T03:57:22;2.20;89.10
27314;DHT22;14800;48.174;9.798;2023-02-15T04:05:37;2.20;89.40
27314;DHT22;14800;48.174;9.798;2023-02-15T04:08:03;2.20;89.40
27314;DHT22;14800;48.174;9.798;2023-02-15T04:10:29;2.20;89.50
27314;DHT22;14800;48.174;9.798;2023-02-15T04:13:13;2.20;89.60
27314;DHT22;14800;48.174;9.798;2023-02-15T04:15:39;2.20;89.60
27314;DHT22;14800;48.174;9.798;2023-02-15T04:18:23;2.30;89.60
27314;DHT22;14800;48.174;9.798;2023-02-15T04:21:07;2.30;89.40
27314;DHT22;14800;48.174;9.798;2023-02-15T04:23:51;2.30;89.20
27314;DHT22;14800;48.174;9.798;2023-02-15T04:26:36;2.30;89.10
27314;DHT22;14800;48.174;9.798;2023-02-15T04:29:01;2.30;89.00
27314;DHT22;14800;48.174;9.798;2023-02-15T04:31:27;2.20;88.80
27314;DHT22;14800;48.174;9.798;2023-02-15T04:33:53;2.20;88.80
27314;DHT22;14800;48.174;9.798;2023-02-15T04:36:18;2.20;88.90
27314;DHT22;14800;48.174;9.798;2023-02-15T04:38:44;2.20;88.90
27314;DHT22;14800;48.174;9.798;2023-02-15T04:41:09;2.20;89.00
27314;DHT22;14800;48.174;9.798;2023-02-15T04:43:36;2.10;88.90
27314;DHT22;14800;48.174;9.798;2023-02-15T04:46:02;2.10;88.90
27314;DHT22;14800;48.174;9.798;2023-02-15T04:48:27;2.10;88.90
27314;DHT22;14800;48.174;9.798;2023-02-15T04:50:53;2.10;88.70
27314;DHT22;14800;48.174;9.798;2023-02-15T04:53:18;2.10;88.70
27314;DHT22;14800;48.174;9.798;2023-02-15T04:55:44;2.10;88.70
27314;DHT22;14800;48.174;9.798;2023-02-15T04:58:10;2.10;88.60
27314;DHT22;14800;48.174;9.798;2023-02-15T05:00:35;2.00;88.40
27314;DHT22;14800;48.174;9.798;2023-02-15T05:03:01;2.00;88.50
27314;DHT22;14800;48.174;9.798;2023-02-15T05:05:27;2.00;88.70
27314;DHT22;14800;48.174;9.798;2023-02-15T05:07:53;2.00;88.90
27314;DHT22;14800;48.174;9.798;2023-02-15T05:10:18;2.00;89.00
27314;DHT22;14800;48.174;9.798;2023-02-15T05:12:44;2.00;89.10
27314;DHT22;14800;48.174;9.798;2023-02-15T05:15:10;2.00;89.10
27314;DHT22;14800;48.174;9.798;2023-02-15T05:17:35;2.00;89.30
27314;DHT22;14800;48.174;9.798;2023-02-15T05:20:01;2.00;89.10
27314;DHT22;14800;48.174;9.798;2023-02-15T05:22:26;2.00;88.90
27314;DHT22;14800;48.174;9.798;2023-02-15T05:24:52;2.00;88.80
27314;DHT22;14800;48.174;9.798;2023-02-15T05:27:36;2.00;88.70
27314;DHT22;14800;48.174;9.798;2023-02-15T05:30:20;1.90;88.60
27314;DHT22;14800;48.174;9.798;2023-02-15T05:32:46;1.90;88.60
27314;DHT22;14800;48.174;9.798;2023-02-15T05:35:14;1.90;88.70
27314;DHT22;14800;48.174;9.798;2023-02-15T05:37:40;1.80;88.70
27314;DHT22;14800;48.174;9.798;2023-02-15T05:40:06;1.80;88.60
27314;DHT22;14800;48.174;9.798;2023-02-15T05:42:32;1.80;88.70
27314;DHT22;14800;48.174;9.798;2023-02-15T05:44:57;1.70;88.70
27314;DHT22;14800;48.174;9.798;2023-02-15T05:47:23;1.70;88.80
27314;DHT22;14800;48.174;9.798;2023-02-15T05:49:49;1.70;88.80
27314;DHT22;14800;48.174;9.798;2023-02-15T05:52:14;1.70;88.80
27314;DHT22;14800;48.174;9.798;2023-02-15T05:54:40;1.60;88.70
27314;DHT22;14800;48.174;9.798;2023-02-15T05:57:05;1.60;88.80
27314;DHT22;14800;48.174;9.798;2023-02-15T05:59:31;1.60;88.90
27314;DHT22;14800;48.174;9.798;2023-02-15T06:01:56;1.60;88.90
27314;DHT22;14800;48.174;9.798;2023-02-15T06:04:22;1.60;89.10
27314;DHT22;14800;48.174;9.798;2023-02-15T06:06:47;1.60;89.00
27314;DHT22;14800;48.174;9.798;2023-02-15T06:09:13;1.60;88.90
27314;DHT22;14800;48.174;9.798;2023-02-15T06:11:39;1.50;88.80
27314;DHT22;14800;48.174;9.798;2023-02-15T06:14:05;1.60;88.90
27314;DHT22;14800;48.174;9.798;2023-02-15T06:16:31;1.50;88.90
27314;DHT22;14800;48.174;9.798;2023-02-15T06:18:56;1.60;89.00
27314;DHT22;14800;48.174;9.798;2023-02-15T06:21:24;1.60;89.10
27314;DHT22;14800;48.174;9.798;2023-02-15T06:23:49;1.60;89.10
27314;DHT22;14800;48.174;9.798;2023-02-15T06:26:15;1.60;89.20
27314;DHT22;14800;48.174;9.798;2023-02-15T06:28:41;1.60;89.10
27314;DHT22;14800;48.174;9.798;2023-02-15T06:31:06;1.60;88.90
27314;DHT22;14800;48.174;9.798;2023-02-15T06:33:32;1.60;88.90
27314;DHT22;14800;48.174;9.798;2023-02-15T06:35:59;1.60;88.90
27314;DHT22;14800;48.174;9.798;2023-02-15T06:38:25;1.60;88.90
27314;DHT22;14800;48.174;9.798;2023-02-15T06:40:50;1.60;88.90
27314;DHT22;14800;48.174;9.798;2023-02-15T06:43:16;1.60;88.70
27314;DHT22;14800;48.174;9.798;2023-02-15T06:45:41;1.60;88.60
27314;DHT22;14800;48.174;9.798;2023-02-15T06:48:07;1.60;88.70
27314;DHT22;14800;48.174;9.798;2023-02-15T06:50:34;1.50;88.70
27314;DHT22;14800;48.174;9.798;2023-02-15T06:53:00;1.50;88.80
27314;DHT22;14800;48.174;9.798;2023-02-15T06:55:25;1.50;88.70
27314;DHT22;14800;48.174;9.798;2023-02-15T06:57:51;1.50;88.70
27314;DHT22;14800;48.174;9.798;2023-02-15T07:00:17;1.50;88.60
27314;DHT22;14800;48.174;9.798;2023-02-15T07:02:43;1.50;88.70
27314;DHT22;14800;48.174;9.798;2023-02-15T07:05:09;1.40;88.80
27314;DHT22;14800;48.174;9.798;2023-02-15T07:07:35;1.40;88.90
27314;DHT22;14800;48.174;9.798;2023-02-15T07:10:02;1.40;88.90
27314;DHT22;14800;48.174;9.798;2023-02-15T07:12:27;1.40;88.90
27314;DHT22;14800;48.174;9.798;2023-02-15T07:15:12;1.30;88.90
27314;DHT22;14800;48.174;9.798;2023-02-15T07:17:38;1.40;89.00
27314;DHT22;14800;48.174;9.798;2023-02-15T07:20:08;1.30;89.00
27314;DHT22;14800;48.174;9.798;2023-02-15T07:22:34;1.30;89.10
27314;DHT22;14800;48.174;9.798;2023-02-15T07:25:02;1.40;89.30
27314;DHT22;14800;48.174;9.798;2023-02-15T07:27:30;1.40;89.30
27314;DHT22;14800;48.174;9.798;2023-02-15T07:29:55;1.40;89.20
27314;DHT22;14800;48.174;9.798;2023-02-15T07:32:21;1.40;89.10
27314;DHT22;14800;48.174;9.798;2023-02-15T07:34:46;1.40;88.90
27314;DHT22;14800;48.174;9.798;2023-02-15T07:37:12;1.50;88.80
27314;DHT22;14800;48.174;9.798;2023-02-15T07:39:38;1.50;88.80
27314;DHT22;14800;48.174;9.798;2023-02-15T07:42:03;1.50;89.50
27314;DHT22;14800;48.174;9.798;2023-02-15T07:44:29;1.40;88.50
27314;DHT22;14800;48.174;9.798;2023-02-15T07:46:54;1.40;88.40
27314;DHT22;14800;48.174;9.798;2023-02-15T07:49:20;1.50;88.40
27314;DHT22;14800;48.174;9.798;2023-02-15T07:51:45;1.40;88.40
27314;DHT22;14800;48.174;9.798;2023-02-15T07:54:11;1.40;88.40
27314;DHT22;14800;48.174;9.798;2023-02-15T07:56:37;1.40;88.40
27314;DHT22;14800;48.174;9.798;2023-02-15T07:59:02;1.40;88.40
27314;DHT22;14800;48.174;9.798;2023-02-15T08:01:32;1.30;88.50
27314;DHT22;14800;48.174;9.798;2023-02-15T08:03:58;1.30;88.60
27314;DHT22;14800;48.174;9.798;2023-02-15T08:06:27;1.30;88.60
27314;DHT22;14800;48.174;9.798;2023-02-15T08:08:53;1.30;88.70
27314;DHT22;14800;48.174;9.798;2023-02-15T08:11:23;1.30;88.80
27314;DHT22;14800;48.174;9.798;2023-02-15T08:14:00;1.30;89.10
27314;DHT22;14800;48.174;9.798;2023-02-15T08:16:37;1.30;89.30
27314;DHT22;14800;48.174;9.798;2023-02-15T08:19:08;1.30;89.30
27314;DHT22;14800;48.174;9.798;2023-02-15T08:21:36;1.30;89.30
27314;DHT22;14800;48.174;9.798;2023-02-15T08:24:03;1.40;89.30
27314;DHT22;14800;48.174;9.798;2023-02-15T08:26:29;1.40;89.30
27314;DHT22;14800;48.174;9.798;2023-02-15T08:28:56;1.40;89.30
27314;DHT22;14800;48.174;9.798;2023-02-15T08:31:22;1.40;89.40
27314;DHT22;14800;48.174;9.798;2023-02-15T08:33:50;1.50;89.60
27314;DHT22;14800;48.174;9.798;2023-02-15T08:36:18;1.50;89.60
27314;DHT22;14800;48.174;9.798;2023-02-15T08:38:45;1.60;89.50
27314;DHT22;14800;48.174;9.798;2023-02-15T08:43:38;1.60;89.30
27314;DHT22;14800;48.174;9.798;2023-02-15T08:46:05;1.70;89.30
27314;DHT22;14800;48.174;9.798;2023-02-15T08:48:31;1.70;89.10
27314;DHT22;14800;48.174;9.798;2023-02-15T08:50:57;1.70;89.10
27314;DHT22;14800;48.174;9.798;2023-02-15T08:53:22;1.70;89.10
27314;DHT22;14800;48.174;9.798;2023-02-15T08:55:58;1.70;89.10
27314;DHT22;14800;48.174;9.798;2023-02-15T08:58:24;1.80;89.10
27314;DHT22;14800;48.174;9.798;2023-02-15T09:00:51;1.80;89.10
27314;DHT22;14800;48.174;9.798;2023-02-15T09:03:17;1.80;89.10
27314;DHT22;14800;48.174;9.798;2023-02-15T09:05:42;1.80;89.20
27314;DHT22;14800;48.174;9.798;2023-02-15T09:08:08;1.80;89.30
27314;DHT22;14800;48.174;9.798;2023-02-15T09:10:34;1.80;89.30
27314;DHT22;14800;48.174;9.798;2023-02-15T09:12:59;1.90;89.50
27314;DHT22;14800;48.174;9.798;2023-02-15T09:15:25;1.90;89.50
27314;DHT22;14800;48.174;9.798;2023-02-15T09:17:50;1.90;89.60
27314;DHT22;14800;48.174;9.798;2023-02-15T09:20:16;2.00;89.60
27314;DHT22;14800;48.174;9.798;2023-02-15T09:22:42;2.00;89.60
27314;DHT22;14800;48.174;9.798;2023-02-15T09:25:07;2.10;89.60
27314;DHT22;14800;48.174;9.798;2023-02-15T09:27:33;2.10;89.60
27314;DHT22;14800;48.174;9.798;2023-02-15T09:29:58;2.20;89.70
27314;DHT22;14800;48.174;9.798;2023-02-15T09:32:24;2.20;90.20
27314;DHT22;14800;48.174;9.798;2023-02-15T09:34:50;2.20;89.80
27314;DHT22;14800;48.174;9.798;2023-02-15T09:37:15;2.30;89.90
27314;DHT22;14800;48.174;9.798;2023-02-15T09:39:42;2.30;89.90
27314;DHT22;14800;48.174;9.798;2023-02-15T09:45:11;2.40;90.10
27314;DHT22;14800;48.174;9.798;2023-02-15T09:58:11;2.70;90.00
27314;DHT22;14800;48.174;9.798;2023-02-15T10:01:09;2.80;90.00
27314;DHT22;14800;48.174;9.798;2023-02-15T10:09:17;3.00;90.20
27314;DHT22;14800;48.174;9.798;2023-02-15T10:34:15;3.80;90.30
27314;DHT22;14800;48.174;9.798;2023-02-15T10:39:17;4.00;90.40
27314;DHT22;14800;48.174;9.798;2023-02-15T10:49:45;4.30;90.40
27314;DHT22;14800;48.174;9.798;2023-02-15T11:03:40;4.80;90.40
27314;DHT22;14800;48.174;9.798;2023-02-15T11:06:18;4.90;90.40
27314;DHT22;14800;48.174;9.798;2023-02-15T11:08:47;5.00;90.40
27314;DHT22;14800;48.174;9.798;2023-02-15T11:11:40;5.10;90.30
27314;DHT22;14800;48.174;9.798;2023-02-15T11:14:17;5.30;90.40
27314;DHT22;14800;48.174;9.798;2023-02-15T11:16:50;5.30;90.40
27314;DHT22;14800;48.174;9.798;2023-02-15T11:19:24;5.40;90.60
27314;DHT22;14800;48.174;9.798;2023-02-15T11:21:55;5.50;90.30
27314;DHT22;14800;48.174;9.798;2023-02-15T11:24:26;5.60;91.00
27314;DHT22;14800;48.174;9.798;2023-02-15T11:26:57;5.60;90.30
27314;DHT22;14800;48.174;9.798;2023-02-15T11:32:30;5.70;90.40
27314;DHT22;14800;48.174;9.798;2023-02-15T11:38:03;5.90;90.50
27314;DHT22;14800;48.174;9.798;2023-02-15T11:40:36;6.00;90.50
27314;DHT22;14800;48.174;9.798;2023-02-15T11:43:13;6.10;90.60
27314;DHT22;14800;48.174;9.798;2023-02-15T11:45:41;6.20;90.60
27314;DHT22;14800;48.174;9.798;2023-02-15T11:48:12;6.30;90.60
27314;DHT22;14800;48.174;9.798;2023-02-15T11:50:39;6.30;90.50
27314;DHT22;14800;48.174;9.798;2023-02-15T11:53:19;6.50;90.50
27314;DHT22;14800;48.174;9.798;2023-02-15T11:55:55;6.50;90.40
27314;DHT22;14800;48.174;9.798;2023-02-15T12:00:58;6.70;90.30
27314;DHT22;14800;48.174;9.798;2023-02-15T12:06:34;6.90;90.30
27314;DHT22;14800;48.174;9.798;2023-02-15T12:09:16;7.00;90.30
27314;DHT22;14800;48.174;9.798;2023-02-15T12:11:44;7.10;90.30
27314;DHT22;14800;48.174;9.798;2023-02-15T12:14:11;7.20;90.20
27314;DHT22;14800;48.174;9.798;2023-02-15T12:16:49;7.20;90.10
27314;DHT22;14800;48.174;9.798;2023-02-15T12:21:51;7.50;90.00
27314;DHT22;14800;48.174;9.798;2023-02-15T12:24:22;7.50;89.90
27314;DHT22;14800;48.174;9.798;2023-02-15T12:27:02;7.60;89.80
27314;DHT22;14800;48.174;9.798;2023-02-15T12:29:44;7.70;89.50
27314;DHT22;14800;48.174;9.798;2023-02-15T12:32:28;7.80;89.20
27314;DHT22;14800;48.174;9.798;2023-02-15T12:35:26;7.90;89.10
27314;DHT22;14800;48.174;9.798;2023-02-15T12:38:03;8.00;89.00
27314;DHT22;14800;48.174;9.798;2023-02-15T12:40:31;8.00;89.10
27314;DHT22;14800;48.174;9.798;2023-02-15T12:42:57;8.10;89.10
27314;DHT22;14800;48.174;9.798;2023-02-15T12:45:29;8.20;89.10
27314;DHT22;14800;48.174;9.798;2023-02-15T12:48:17;8.30;88.70
27314;DHT22;14800;48.174;9.798;2023-02-15T12:50:50;8.40;88.30
27314;DHT22;14800;48.174;9.798;2023-02-15T12:55:58;8.50;87.90
27314;DHT22;14800;48.174;9.798;2023-02-15T12:58:26;8.60;87.00
27314;DHT22;14800;48.174;9.798;2023-02-15T13:01:15;8.70;87.30
27314;DHT22;14800;48.174;9.798;2023-02-15T13:04:03;8.80;86.20
27314;DHT22;14800;48.174;9.798;2023-02-15T13:06:35;8.90;85.80
27314;DHT22;14800;48.174;9.798;2023-02-15T13:09:16;9.00;86.30
27314;DHT22;14800;48.174;9.798;2023-02-15T13:11:43;9.10;85.30
27314;DHT22;14800;48.174;9.798;2023-02-15T13:14:31;9.20;85.80
27314;DHT22;14800;48.174;9.798;2023-02-15T13:17:00;9.20;84.50
27314;DHT22;14800;48.174;9.798;2023-02-15T13:19:37;9.30;85.20
27314;DHT22;14800;48.174;9.798;2023-02-15T13:22:32;9.40;84.60
27314;DHT22;14800;48.174;9.798;2023-02-15T13:25:03;9.50;84.10
27314;DHT22;14800;48.174;9.798;2023-02-15T13:27:40;9.60;84.80
27314;DHT22;14800;48.174;9.798;2023-02-15T13:30:25;9.60;83.60
27314;DHT22;14800;48.174;9.798;2023-02-15T13:32:56;9.70;83.60
27314;DHT22;14800;48.174;9.798;2023-02-15T13:35:23;9.80;83.80
27314;DHT22;14800;48.174;9.798;2023-02-15T13:40:37;9.90;83.50
27314;DHT22;14800;48.174;9.798;2023-02-15T14:00:17;10.50;81.20
27314;DHT22;14800;48.174;9.798;2023-02-15T14:11:03;10.70;81.40
27314;DHT22;14800;48.174;9.798;2023-02-15T14:16:33;10.80;79.80
27314;DHT22;14800;48.174;9.798;2023-02-15T14:19:39;10.90;79.50
27314;DHT22;14800;48.174;9.798;2023-02-15T14:22:44;10.90;79.90
27314;DHT22;14800;48.174;9.798;2023-02-15T14:30:37;11.00;79.10
27314;DHT22;14800;48.174;9.798;2023-02-15T14:33:07;11.10;77.80
27314;DHT22;14800;48.174;9.798;2023-02-15T14:35:34;11.10;78.60
27314;DHT22;14800;48.174;9.798;2023-02-15T14:51:03;11.30;79.10
27314;DHT22;14800;48.174;9.798;2023-02-15T15:01:27;11.30;79.90
27314;DHT22;14800;48.174;9.798;2023-02-15T15:03:57;11.20;80.00
27314;DHT22;14800;48.174;9.798;2023-02-15T15:06:35;11.20;80.30
27314;DHT22;14800;48.174;9.798;2023-02-15T15:09:23;11.20;80.30
27314;DHT22;14800;48.174;9.798;2023-02-15T15:11:52;11.10;80.30
27314;DHT22;14800;48.174;9.798;2023-02-15T15:17:03;11.10;81.00
27314;DHT22;14800;48.174;9.798;2023-02-15T15:22:20;10.90;80.20
27314;DHT22;14800;48.174;9.798;2023-02-15T15:49:20;10.40;81.20
27314;DHT22;14800;48.174;9.798;2023-02-15T15:51:46;10.40;81.20
27314;DHT22;14800;48.174;9.798;2023-02-15T15:54:24;10.30;81.30
27314;DHT22;14800;48.174;9.798;2023-02-15T15:56:57;10.30;81.00
27314;DHT22;14800;48.174;9.798;2023-02-15T15:59:29;10.20;81.30
27314;DHT22;14800;48.174;9.798;2023-02-15T16:01:56;10.20;81.40
27314;DHT22;14800;48.174;9.798;2023-02-15T16:04:27;10.20;81.50
27314;DHT22;14800;48.174;9.798;2023-02-15T16:06:55;10.20;81.50
27314;DHT22;14800;48.174;9.798;2023-02-15T16:09:26;10.20;81.70
27314;DHT22;14800;48.174;9.798;2023-02-15T16:11:54;10.20;81.70
27314;DHT22;14800;48.174;9.798;2023-02-15T16:14:37;10.10;81.80
27314;DHT22;14800;48.174;9.798;2023-02-15T16:17:07;10.20;81.70
27314;DHT22;14800;48.174;9.798;2023-02-15T16:19:39;10.10;81.90
27314;DHT22;14800;48.174;9.798;2023-02-15T16:22:11;10.10;81.80
27314;DHT22;14800;48.174;9.798;2023-02-15T16:30:13;10.00;81.50
27314;DHT22;14800;48.174;9.798;2023-02-15T16:32:41;10.00;81.30
27314;DHT22;14800;48.174;9.798;2023-02-15T16:35:14;10.00;81.10
27314;DHT22;14800;48.174;9.798;2023-02-15T16:37:40;9.90;80.70
27314;DHT22;14800;48.174;9.798;2023-02-15T16:40:06;9.70;80.50
27314;DHT22;14800;48.174;9.798;2023-02-15T16:42:38;9.70;80.40
27314;DHT22;14800;48.174;9.798;2023-02-15T16:45:13;9.50;80.30
27314;DHT22;14800;48.174;9.798;2023-02-15T16:47:40;9.50;80.40
27314;DHT22;14800;48.174;9.798;2023-02-15T16:50:20;9.40;80.30
27314;DHT22;14800;48.174;9.798;2023-02-15T16:52:46;9.20;80.20
27314;DHT22;14800;48.174;9.798;2023-02-15T16:55:21;9.10;80.40
27314;DHT22;14800;48.174;9.798;2023-02-15T16:57:49;9.00;80.20
27314;DHT22;14800;48.174;9.798;2023-02-15T17:00:21;8.90;81.30
27314;DHT22;14800;48.174;9.798;2023-02-15T17:03:19;8.70;80.50
27314;DHT22;14800;48.174;9.798;2023-02-15T17:06:33;8.60;80.60
27314;DHT22;14800;48.174;9.798;2023-02-15T17:08:44;8.50;81.60
27314;DHT22;14800;48.174;9.798;2023-02-15T17:11:19;8.40;80.60
27314;DHT22;14800;48.174;9.798;2023-02-15T17:17:21;8.10;80.80
27314;DHT22;14800;48.174;9.798;2023-02-15T17:19:28;8.00;81.20
27314;DHT22;14800;48.174;9.798;2023-02-15T17:22:03;7.90;81.50
27314;DHT22;14800;48.174;9.798;2023-02-15T17:24:48;7.80;81.60
27314;DHT22;14800;48.174;9.798;2023-02-15T17:27:24;7.70;81.70
27314;DHT22;14800;48.174;9.798;2023-02-15T17:29:55;7.60;81.80
27314;DHT22;14800;48.174;9.798;2023-02-15T17:32:27;7.50;82.00
27314;DHT22;14800;48.174;9.798;2023-02-15T17:35:14;7.40;82.00
27314;DHT22;14800;48.174;9.798;2023-02-15T17:37:45;7.30;82.20
27314;DHT22;14800;48.174;9.798;2023-02-15T17:40:29;7.20;82.40
27314;DHT22;14800;48.174;9.798;2023-02-15T17:42:55;7.20;82.60
27314;DHT22;14800;48.174;9.798;2023-02-15T17:45:22;7.10;82.60
27314;DHT22;14800;48.174;9.798;2023-02-15T17:47:48;7.00;82.90
27314;DHT22;14800;48.174;9.798;2023-02-15T17:50:24;6.90;83.40
27314;DHT22;14800;48.174;9.798;2023-02-15T17:52:51;6.90;84.40
27314;DHT22;14800;48.174;9.798;2023-02-15T17:55:19;6.90;84.60
27314;DHT22;14800;48.174;9.798;2023-02-15T17:58:01;6.80;85.30
27314;DHT22;14800;48.174;9.798;2023-02-15T18:00:29;6.80;84.50
27314;DHT22;14800;48.174;9.798;2023-02-15T18:03:14;6.70;84.70
27314;DHT22;14800;48.174;9.798;2023-02-15T18:05:58;6.70;84.90
27314;DHT22;14800;48.174;9.798;2023-02-15T18:08:43;6.60;84.90
27314;DHT22;14800;48.174;9.798;2023-02-15T18:11:27;6.60;85.00
27314;DHT22;14800;48.174;9.798;2023-02-15T18:14:07;6.50;85.00
27314;DHT22;14800;48.174;9.798;2023-02-15T18:16:35;6.50;85.10
27314;DHT22;14800;48.174;9.798;2023-02-15T18:19:02;6.50;84.90
27314;DHT22;14800;48.174;9.798;2023-02-15T18:21:30;6.40;84.50
27314;DHT22;14800;48.174;9.798;2023-02-15T18:23:56;6.40;84.40
27314;DHT22;14800;48.174;9.798;2023-02-15T18:26:23;6.40;84.40
27314;DHT22;14800;48.174;9.798;2023-02-15T18:28:50;6.30;84.20
27314;DHT22;14800;48.174;9.798;2023-02-15T18:31:16;6.30;83.80
27314;DHT22;14800;48.174;9.798;2023-02-15T18:33:54;6.30;84.70
27314;DHT22;14800;48.174;9.798;2023-02-15T18:36:29;6.20;83.80
27314;DHT22;14800;48.174;9.798;2023-02-15T18:38:57;6.10;83.50
27314;DHT22;14800;48.174;9.798;2023-02-15T18:41:23;6.10;83.50
27314;DHT22;14800;48.174;9.798;2023-02-15T18:43:50;6.00;83.30
27314;DHT22;14800;48.174;9.798;2023-02-15T18:46:18;6.00;83.10
27314;DHT22;14800;48.174;9.798;2023-02-15T18:48:44;5.90;83.10
27314;DHT22;14800;48.174;9.798;2023-02-15T18:51:21;5.80;83.10
27314;DHT22;14800;48.174;9.798;2023-02-15T18:53:49;5.80;83.00
27314;DHT22;14800;48.174;9.798;2023-02-15T18:56:17;5.70;83.10
27314;DHT22;14800;48.174;9.798;2023-02-15T18:58:44;5.60;83.30
27314;DHT22;14800;48.174;9.798;2023-02-15T19:01:18;5.60;83.70
27314;DHT22;14800;48.174;9.798;2023-02-15T19:03:49;5.50;83.70
27314;DHT22;14800;48.174;9.798;2023-02-15T19:06:18;5.50;83.60
27314;DHT22;14800;48.174;9.798;2023-02-15T19:08:45;5.40;83.90
27314;DHT22;14800;48.174;9.798;2023-02-15T19:11:14;5.40;84.20
27314;DHT22;14800;48.174;9.798;2023-02-15T19:13:40;5.30;84.00
27314;DHT22;14800;48.174;9.798;2023-02-15T19:16:07;5.30;84.00
27314;DHT22;14800;48.174;9.798;2023-02-15T19:18:33;5.30;83.90
27314;DHT22;14800;48.174;9.798;2023-02-15T19:20:59;5.30;83.70
27314;DHT22;14800;48.174;9.798;2023-02-15T19:23:24;5.20;83.70
27314;DHT22;14800;48.174;9.798;2023-02-15T19:25:51;5.20;83.50
27314;DHT22;14800;48.174;9.798;2023-02-15T19:28:23;5.10;83.20
27314;DHT22;14800;48.174;9.798;2023-02-15T19:30:50;5.00;83.10
27314;DHT22;14800;48.174;9.798;2023-02-15T19:33:17;5.00;83.20
27314;DHT22;14800;48.174;9.798;2023-02-15T19:35:47;4.90;83.10
27314;DHT22;14800;48.174;9.798;2023-02-15T19:38:21;4.90;83.20